Tonkawa, OK

6:00 PM CST on February 23, 2017 (GMT -0600)
Blackwell

Weather History for KBKN - December, 2013

Change the Weather History Date:

Sunday, December 29, 2013

  Actual Average (KPNC) Record (KPNC)
Temperature  
Mean Temperature 28 °F -  
Max Temperature 41 °F 49 °F 70 °F (1972)
Min Temperature 14 °F 27 °F 10 °F (2012)
Degree Days  
Heating Degree Days 38    
Moisture  
Dew Point 16 °F    
Average Humidity 68    
Maximum Humidity 100    
Minimum Humidity 46    
Precipitation  
Precipitation 0.00 in - - ()
Sea Level Pressure  
Sea Level Pressure 30.22 in    
Wind  
Wind Speed 17 mph (North)    
Max Wind Speed 33 mph    
Max Gust Speed 41 mph    
Visibility 10 miles    
Events Snow    
Averages and records for this station are not official NWS values.
T = Trace of Precipitation, MM = Missing Value Source: NWS Daily Summary

Daily Weather History Graph

Daily Weather History Graph

Search for Another Location

Airport or City:

Trip Planner

Search our weather history database for the weather conditions in past years. The results will help you decide how hot, cold, wet, or windy it might be!

Date:

Astronomy

Dec. 29, 2013 Rise Set
Actual Time 7:41 AM CST 5:21 PM CST
Civil Twilight 7:12 AM CST 5:50 PM CST
Nautical Twilight 6:40 AM CST 6:23 PM CST
Astronomical Twilight 6:08 AM CST 6:54 PM CST
Moon 4:28 AM CST (12/29) 2:59 PM CST (12/29)
Length of Visible Light 10h 38m
Length of Day
9h 40m
Waning Crescent, 11% of the Moon is Illuminated
Dec 29
Waning Crescent
Jan 1
New
Jan 7
First Quarter
Jan 15
Full
Jan 23
Last Quarter

Hourly Weather History & Observations

Time (CST) Temp. Windchill Dew Point Humidity Pressure Visibility Wind Dir Wind Speed Gust Speed Precip Events Conditions
12:15 AM 35.6 °F 29.2 °F 33.8 °F 93% 29.94 in 10.0 mi North 8.1 mph - N/A   Clear
12:35 AM 35.6 °F 30.7 °F 33.8 °F 93% 29.93 in 10.0 mi North 5.8 mph - N/A   Partly Cloudy
12:55 AM 35.6 °F - 33.8 °F 93% 29.93 in 10.0 mi Calm Calm - N/A   Clear
1:15 AM 35.6 °F 30.7 °F 33.8 °F 93% 29.96 in 10.0 mi North 5.8 mph - N/A   Scattered Clouds
1:35 AM 35.6 °F 29.9 °F 35.6 °F 100% 29.95 in 10.0 mi NNW 6.9 mph - N/A   Overcast
1:55 AM 37.4 °F 31.4 °F 37.4 °F 100% 29.95 in 10.0 mi North 8.1 mph - N/A   Overcast
2:15 AM 39.2 °F 31.2 °F 37.4 °F 93% 29.97 in 10.0 mi NNW 13.8 mph 17.3 mph N/A   Overcast
2:35 AM 41.0 °F 29.8 °F 35.6 °F 81% 29.97 in 10.0 mi North 29.9 mph 36.8 mph N/A   Overcast
2:55 AM 39.2 °F 27.6 °F 32.0 °F 75% 29.99 in 10.0 mi North 28.8 mph 34.5 mph N/A   Overcast
3:15 AM 37.4 °F 24.6 °F 32.0 °F 81% 30.01 in 10.0 mi North 32.2 mph 40.3 mph N/A   Mostly Cloudy
3:35 AM 35.6 °F 23.2 °F 32.0 °F 87% 30.02 in 10.0 mi North 26.5 mph 41.4 mph N/A   Mostly Cloudy
3:55 AM 32.0 °F 18.1 °F 28.4 °F 87% 30.04 in 10.0 mi North 27.6 mph 39.1 mph N/A   Overcast
4:15 AM 32.0 °F 17.6 °F 26.6 °F 80% 30.06 in 10.0 mi North 29.9 mph 38.0 mph N/A   Overcast
4:35 AM 32.0 °F 18.1 °F 24.8 °F 75% 30.07 in 10.0 mi North 27.6 mph 36.8 mph N/A   Overcast
4:55 AM 30.2 °F 15.9 °F 24.8 °F 80% 30.09 in 10.0 mi North 26.5 mph 39.1 mph N/A   Overcast
5:15 AM 30.2 °F 15.2 °F 24.8 °F 80% 30.10 in 10.0 mi North 29.9 mph 38.0 mph N/A   Overcast
5:35 AM 28.4 °F 12.0 °F 23.0 °F 80% 30.12 in 10.0 mi North 33.4 mph 39.1 mph N/A   Overcast
5:55 AM 26.6 °F 10.3 °F 19.4 °F 74% 30.13 in 10.0 mi North 29.9 mph 36.8 mph N/A   Overcast
6:15 AM 26.6 °F 10.0 °F 17.6 °F 69% 30.15 in 10.0 mi North 31.1 mph 40.3 mph N/A   Overcast
6:35 AM 24.8 °F 8.7 °F 17.6 °F 74% 30.18 in 10.0 mi North 26.5 mph 36.8 mph N/A   Overcast
6:55 AM 24.8 °F 8.7 °F 15.8 °F 69% 30.20 in 10.0 mi North 26.5 mph 34.5 mph N/A   Overcast
7:15 AM 23.0 °F 6.9 °F 15.8 °F 74% 30.21 in 10.0 mi North 24.2 mph 34.5 mph N/A   Overcast
7:35 AM 23.0 °F 6.6 °F 15.8 °F 74% 30.21 in 10.0 mi North 25.3 mph 35.7 mph N/A   Overcast
7:55 AM 23.0 °F 5.4 °F 15.8 °F 74% 30.22 in 10.0 mi North 29.9 mph 39.1 mph N/A   Overcast
8:15 AM 23.0 °F 6.3 °F 14.0 °F 68% 30.24 in 10.0 mi North 26.5 mph 39.1 mph N/A   Overcast
8:35 AM 23.0 °F 6.0 °F 14.0 °F 68% 30.26 in 10.0 mi North 27.6 mph 36.8 mph N/A Snow Light Snow
8:55 AM 23.0 °F 5.4 °F 14.0 °F 68% 30.27 in 10.0 mi North 29.9 mph 33.4 mph N/A   Overcast
9:15 AM 23.0 °F 6.6 °F 14.0 °F 68% 30.28 in 10.0 mi North 25.3 mph 33.4 mph N/A   Overcast
9:35 AM 23.0 °F 6.0 °F 14.0 °F 68% 30.29 in 10.0 mi North 27.6 mph 32.2 mph N/A   Overcast
9:55 AM 23.0 °F 6.9 °F 14.0 °F 68% 30.30 in 10.0 mi North 24.2 mph 32.2 mph N/A   Overcast
10:15 AM 23.0 °F 6.9 °F 14.0 °F 68% 30.31 in 10.0 mi North 24.2 mph 31.1 mph N/A Snow Light Snow
10:35 AM 23.0 °F 8.0 °F 14.0 °F 68% 30.31 in 10.0 mi North 20.7 mph - N/A   Overcast
10:55 AM 23.0 °F 6.9 °F 14.0 °F 68% 30.31 in 10.0 mi NNW 24.2 mph 29.9 mph N/A   Overcast
11:15 AM 23.0 °F 7.2 °F 14.0 °F 68% 30.31 in 10.0 mi North 23.0 mph 29.9 mph N/A   Overcast
11:35 AM 23.0 °F 7.6 °F 12.2 °F 63% 30.32 in 10.0 mi North 21.9 mph - N/A   Overcast
11:55 AM 23.0 °F 8.3 °F 12.2 °F 63% 30.31 in 10.0 mi North 19.6 mph 27.6 mph N/A   Overcast
12:15 PM 23.0 °F 7.6 °F 12.2 °F 63% 30.31 in 10.0 mi North 21.9 mph - N/A   Overcast
12:35 PM 24.8 °F 10.3 °F 12.2 °F 59% 30.30 in 10.0 mi North 20.7 mph 26.5 mph N/A   Overcast
12:55 PM 24.8 °F 10.7 °F 10.4 °F 54% 30.29 in 10.0 mi NNW 19.6 mph 25.3 mph N/A   Overcast
1:15 PM 24.8 °F 10.0 °F 10.4 °F 54% 30.29 in 10.0 mi North 21.9 mph 25.3 mph N/A   Overcast
1:35 PM 24.8 °F 10.3 °F 10.4 °F 54% 30.29 in 10.0 mi NNW 20.7 mph - N/A   Overcast
1:55 PM 24.8 °F 10.3 °F 10.4 °F 54% 30.29 in 10.0 mi North 20.7 mph 24.2 mph N/A   Overcast
2:15 PM 26.6 °F 12.7 °F 12.2 °F 55% 30.29 in 10.0 mi NNW 20.7 mph 26.5 mph N/A   Scattered Clouds
2:35 PM 26.6 °F 12.0 °F 12.2 °F 55% 30.29 in 10.0 mi North 23.0 mph 28.8 mph N/A   Clear
2:55 PM 26.6 °F 13.4 °F 10.4 °F 51% 30.28 in 10.0 mi North 18.4 mph 28.8 mph N/A   Clear
3:15 PM 24.8 °F 11.5 °F 10.4 °F 54% 30.29 in 10.0 mi North 17.3 mph 21.9 mph N/A   Clear
3:35 PM 24.8 °F 11.1 °F 10.4 °F 54% 30.29 in 10.0 mi NNW 18.4 mph 24.2 mph N/A   Clear
3:55 PM 24.8 °F 10.7 °F 10.4 °F 54% 30.30 in 10.0 mi North 19.6 mph 25.3 mph N/A   Clear
4:15 PM 24.8 °F 11.5 °F 8.6 °F 50% 30.30 in 10.0 mi North 17.3 mph 21.9 mph N/A   Clear
4:35 PM 24.8 °F 11.9 °F 8.6 °F 50% 30.31 in 10.0 mi North 16.1 mph - N/A   Clear
4:55 PM 24.8 °F 14.0 °F 8.6 °F 50% 30.32 in 10.0 mi North 11.5 mph - N/A   Clear
5:15 PM 24.8 °F 12.9 °F 8.6 °F 50% 30.32 in 10.0 mi North 13.8 mph - N/A   Clear
5:35 PM 24.8 °F 13.4 °F 6.8 °F 46% 30.32 in 10.0 mi North 12.7 mph - N/A   Clear
5:55 PM 23.0 °F 9.6 °F 6.8 °F 50% 30.33 in 10.0 mi North 16.1 mph - N/A   Mostly Cloudy
6:15 PM 23.0 °F 9.6 °F 5.0 °F 46% 30.33 in 10.0 mi North 16.1 mph - N/A   Overcast
6:35 PM 23.0 °F 11.1 °F 5.0 °F 46% 30.33 in 10.0 mi North 12.7 mph - N/A   Overcast
6:55 PM 23.0 °F 10.6 °F 5.0 °F 46% 30.34 in 10.0 mi North 13.8 mph - N/A   Overcast
7:15 PM 21.2 °F 8.9 °F 6.8 °F 54% 30.34 in 10.0 mi North 12.7 mph - N/A   Overcast
7:35 PM 19.4 °F 6.6 °F 5.0 °F 54% 30.34 in 10.0 mi North 12.7 mph - N/A   Mostly Cloudy
7:55 PM 19.4 °F 7.9 °F 6.8 °F 58% 30.34 in 10.0 mi North 10.4 mph - N/A   Partly Cloudy
8:15 PM 19.4 °F 8.6 °F 6.8 °F 58% 30.33 in 10.0 mi North 9.2 mph - N/A   Partly Cloudy
8:35 PM 19.4 °F 10.4 °F 6.8 °F 58% 30.33 in 10.0 mi North 6.9 mph - N/A   Clear
8:55 PM 17.6 °F 9.3 °F 6.8 °F 63% 30.33 in 10.0 mi North 5.8 mph - N/A   Clear
9:15 PM 17.6 °F 10.7 °F 8.6 °F 68% 30.32 in 10.0 mi NNW 4.6 mph - N/A   Clear
9:35 PM 17.6 °F 9.3 °F 8.6 °F 68% 30.32 in 10.0 mi North 5.8 mph - N/A   Clear
9:55 PM 15.8 °F 8.6 °F 8.6 °F 73% 30.32 in 10.0 mi NNW 4.6 mph - N/A   Clear
10:15 PM 15.8 °F 8.6 °F 8.6 °F 73% 30.31 in 10.0 mi NNW 4.6 mph - N/A   Clear
10:35 PM 15.8 °F 7.2 °F 8.6 °F 73% 30.31 in 10.0 mi North 5.8 mph - N/A   Clear
10:55 PM 15.8 °F 10.2 °F 8.6 °F 73% 30.31 in 10.0 mi NNW 3.5 mph - N/A   Clear
11:15 PM 14.0 °F 8.2 °F 8.6 °F 79% 30.30 in 10.0 mi North 3.5 mph - N/A   Clear
11:35 PM 15.8 °F 8.6 °F 8.6 °F 73% 30.30 in 10.0 mi North 4.6 mph - N/A   Clear
11:55 PM 14.0 °F 8.2 °F 8.6 °F 79% 30.30 in 10.0 mi North 3.5 mph - N/A   Clear